首页
METAR-TAF:

METAR-TAF

机场 :

Skagway, 阿拉斯加州, 美国

纬度: 59-28N, 经度: 135-18W, 海拔: 16米

当前天气观测

该预报发布于2小时和18分钟前的14:15 UTC
风速8节,风向南转西南,有时为17节阵风
温度 4°C
湿度 81%
气压 1016 hPa
能見度: 16.1公里
少量云层高于2700英尺
阴天层高于5000英尺

METAR: PAGY 081415Z AUTO 20008G17KT 10SM FEW027 OVC050 04/01 A2999 RMK AO2 T00390006 TSNO

时间: 07:33 (16:33 UTC)

预报

该预报发布于5小时和0分钟前的11:33 UTC
预报有效从08日的 12点(UTC)到 09日的 12点(UTC)
风速3节,风向多变
能見度: 6.4公里
阴天层高于1500英尺
小雪, 轻雾
从 08日的 1500点(UTC)
风速12节,风向南转西南
能見度: 10公里
散云层高于1500英尺
多云层高于2500英尺
阴天层高于4000英尺
小雨

TAF: PAGY 081133Z 0812/0912 VRB03KT 4SM -SN BR OVC015 FM081500 21012KT P6SM -RA SCT015 BKN025 OVC040 AMD NOT SKED

超过4000个机场的气象观测和天气预报(METAR&TAF报告)。

可查询的气象台以黄色和红色小点在地图上表示。

将鼠标移到小点上方,可查看气象台名称。

然后点击查看天气观测和预报。

如需切换地图:点击带黑十字的绿色按钮放大地图;点击带横线的绿色按钮缩小地图;或者点击绿色箭头查看邻近地区的地图。


METAR-TAF: